Home > Products > Valid Products > TAF

000
FTUS46 KPQR 232020 AAA
TAFTTD
TAF AMD
KTTD 232020Z 2320/2418 23006KT 5SM -TSRA BKN030CB OVC050
     FM232045 23004KT P6SM -SHRA FEW025 OVC050
     FM240600 10003KT P6SM FEW025 BKN050
     FM241700 10007KT P6SM FEW025 BKN200=



000
FTUS46 KPQR 232018 AAA
TAFPDX
TAF AMD
KPDX 232018Z 2320/2418 20007KT 5SM -TSRA BR BKN030CB OVC050
     FM232030 20007KT P6SM -SHRA SCT025 BKN050
     FM240500 VRB03KT P6SM FEW025 BKN050
     FM241200 VRB03KT 6SM BR FEW008 SCT012 BKN200
     FM241700 10005KT P6SM FEW025 BKN200=



000
FTUS46 KPQR 231755 CCA
TAFONP
TAF COR
KONP 231755Z 2318/2418 21009KT P6SM -SHRA FEW025 BKN050
      TEMPO 2318/2321 3SM BR SCT005 BKN012 OVC025
     FM240600 18006KT 6SM BR FEW008 SCT012 BKN050
     FM240900 VRB03KT 3SM BR FEW004 SCT008 BKN012
     FM241700 10005KT P6SM FEW025 BKN200=



000
FTUS46 KPQR 231755 CCA
TAFONP
TAF COR
KONP 231755Z 2318/2418 21009KT P6SM -SHRA FEW025 BKN050
      TEMPO 2318/2321 3SM BR SCT005 BKN012 OVC025
     FM240600 18006KT 6SM BR FEW008 SCT012 BKN050
     FM240900 VRB03KT 3SM BR FEW004 SCT008 BKN012
     FM241700 10005KT P6SM FEW025 BKN200=



000
FTUS46 KPQR 231753 CCA
TAFEUG
TAF COR
KEUG 231753Z 2318/2418 19009KT P6SM -SHRA SCT025 OVC050
     FM240400 VRB02KT P6SM FEW025 BKN040
     FM241200 VRB03KT 6SM BR FEW008 SCT012 BKN200
     FM241700 36004KT P6SM FEW025 BKN200=



000
FTUS46 KPQR 231753 CCA
TAFEUG
TAF COR
KEUG 231753Z 2318/2418 19009KT P6SM -SHRA SCT025 OVC050
     FM240400 VRB02KT P6SM FEW025 BKN040
     FM241200 VRB03KT 6SM BR FEW008 SCT012 BKN200
     FM241700 36004KT P6SM FEW025 BKN200=



000
FTUS46 KPQR 231753 CCA
TAFSLE
TAF COR
KSLE 231753Z 2318/2418 19009KT P6SM -RA SCT025 OVC040
     FM240500 VRB03KT P6SM FEW025 BKN040
     FM241200 VRB03KT 6SM BR FEW008 SCT012 BKN200
     FM241700 36005KT P6SM FEW025 BKN200=



000
FTUS46 KPQR 231753 CCA
TAFSLE
TAF COR
KSLE 231753Z 2318/2418 19009KT P6SM -RA SCT025 OVC040
     FM240500 VRB03KT P6SM FEW025 BKN040
     FM241200 VRB03KT 6SM BR FEW008 SCT012 BKN200
     FM241700 36005KT P6SM FEW025 BKN200=



000
FTUS46 KPQR 231752 CCA
TAFPDX
TAF COR
KPDX 231752Z 2318/2418 20007KT P6SM -SHRA SCT025 BKN050
     FM240500 VRB03KT P6SM FEW025 BKN050
     FM241200 VRB03KT 6SM BR FEW008 SCT012 BKN200
     FM241700 10005KT P6SM FEW025 BKN200=



000
FTUS46 KPQR 231752 CCA
TAFHIO
TAF COR
KHIO 231752Z 2318/2418 19008KT P6SM -SHRA FEW025 OVC050
     FM240500 VRB03KT P6SM BKN050
     FM241200 VRB03KT 6SM BR FEW008 SCT012 BKN200
     FM241700 14003KT P6SM FEW025 BKN200=



000
FTUS46 KPQR 231752 CCA
TAFPDX
TAF COR
KPDX 231752Z 2318/2418 20007KT P6SM -SHRA SCT025 BKN050
     FM240500 VRB03KT P6SM FEW025 BKN050
     FM241200 VRB03KT 6SM BR FEW008 SCT012 BKN200
     FM241700 10005KT P6SM FEW025 BKN200=



000
FTUS46 KPQR 231752 CCA
TAFHIO
TAF COR
KHIO 231752Z 2318/2418 19008KT P6SM -SHRA FEW025 OVC050
     FM240500 VRB03KT P6SM BKN050
     FM241200 VRB03KT 6SM BR FEW008 SCT012 BKN200
     FM241700 14003KT P6SM FEW025 BKN200=



000
FTUS46 KPQR 231732
TAFHIO
TAF
KHIO 231732Z 2318/2418 19008KT P6SM -SHRA FEW025 OVC050
     FM240500 16004KT P6SM BKN050
     FM241700 14003KT P6SM FEW025 BKN200=



000
FTUS46 KPQR 231732
TAFEUG
TAF
KEUG 231732Z 2318/2418 19009KT P6SM -SHRA SCT025 OVC050
     FM240400 VRB02KT P6SM FEW025 BKN040
     FM241700 36004KT P6SM FEW025 BKN200=



000
FTUS46 KPQR 231732
TAFTTD
TAF
KTTD 231732Z 2318/2418 23004KT P6SM -SHRA FEW025 OVC050
     FM240600 10003KT P6SM FEW025 BKN050
     FM241700 10007KT P6SM FEW025 BKN200=



000
FTUS46 KPQR 231732
TAFONP
TAF
KONP 231732Z 2318/2418 21009KT P6SM -SHRA FEW025 OVC050
      TEMPO 2318/2320 3SM BR SCT005 BKN012 OVC025
     FM240600 18006KT P6SM SCT015 BKN050
     FM241700 10005KT P6SM FEW025 BKN200=



000
FTUS46 KPQR 231732
TAFPDX
TAF
KPDX 231732Z 2318/2418 20007KT P6SM -SHRA SCT025 BKN050
     FM240500 14005KT P6SM FEW025 BKN050
     FM241700 10005KT P6SM FEW025 BKN200=



000
FTUS46 KPQR 231732
TAFAST
TAF
KAST 231732Z 2318/2418 22008KT P6SM -SHRA SCT025 BKN050
     FM240700 18005KT P6SM SCT025 BKN050
     FM241700 07005KT P6SM FEW025 BKN200=



000
FTUS46 KPQR 231732
TAFSLE
TAF
KSLE 231732Z 2318/2418 19009KT P6SM -RA SCT025 OVC040
     FM240500 17004KT P6SM FEW025 BKN040
     FM241700 36005KT P6SM FEW025 BKN200=



000
FTUS46 KPQR 231627 AAB
TAFHIO
TAF AMD
KHIO 231627Z 2316/2412 17005KT P6SM -RA SCT020 OVC040
      TEMPO 2316/2319 6SM -RA BR BKN015 OVC030
     FM231900 19008KT P6SM -SHRA SCT020 BKN040
     FM240500 16004KT P6SM BKN050=



000
FTUS46 KPQR 231624 AAA
TAFSLE
TAF AMD
KSLE 231624Z 2316/2412 19009KT P6SM -RA SCT025 OVC040
      TEMPO 2316/2319 5SM -RA BR BKN025 OVC040
     FM231900 19009KT P6SM -SHRA SCT025 BKN040
     FM240500 17004KT P6SM BKN040=



000
FTUS46 KPQR 231623 AAA
TAFEUG
TAF AMD
KEUG 231623Z 2316/2412 19009KT P6SM -SHRA SCT025 OVC050
      TEMPO 2316/2319 6SM BR BKN025 OVC040
     FM231900 20009KT P6SM -SHRA SCT025 BKN040
     FM240400 VRB02KT P6SM BKN040=



000
FTUS46 KPQR 231622 AAA
TAFONP
TAF AMD
KONP 231622Z 2316/2412 21009KT 5SM -SHRA BR SCT020 BKN040
      TEMPO 2316/2320 SCT015 BKN025 OVC040
     FM240600 18006KT P6SM SCT015 BKN050=



000
FTUS46 KPQR 231622 AAA
TAFONP
TAF AMD
KONP 231622Z 2316/2412 21009KT 5SM -SHRA BR SCT020 BKN040
      TEMPO 2316/2320 SCT015 BKN025 OVC040
     FM240600 18006KT P6SM SCT015 BKN050=



000
FTUS46 KPQR 231601 AAC
TAFPDX
TAF AMD
KPDX 231601Z 2316/2412 18007KT P6SM -SHRA SCT020 OVC040
      TEMPO 2316/2320 4SM -RA BR BKN015 OVC030
     FM240500 14005KT P6SM BKN050=



000
FTUS46 KPQR 231511 AAB
TAFPDX
TAF AMD
KPDX 231511Z 2315/2412 11007KT P6SM -RA SCT020 OVC040 WS020/23025KT
      TEMPO 2315/2319 6SM -RA BR BKN015 OVC030
     FM231900 19009KT P6SM -SHRA SCT020 BKN040
     FM240500 14005KT P6SM BKN050=



000
FTUS46 KPQR 231511 AAB
TAFTTD
TAF AMD
KTTD 231511Z 2315/2412 09005KT P6SM -RA SCT020 OVC050 WS020/23025KT
      TEMPO 2315/2319 6SM -RA BR BKN015 OVC030
     FM231900 25004KT P6SM -SHRA SCT020 BKN040
     FM240600 10003KT P6SM BKN050=



000
FTUS46 KPQR 231455 AAA
TAFTTD
TAF AMD
KTTD 231455Z 2315/2412 09005KT P6SM -RA SCT020 OVC050
      TEMPO 2315/2319 6SM -RA BR BKN015 OVC030
     FM231900 25004KT P6SM -SHRA SCT020 BKN040
     FM240600 10003KT P6SM BKN050=



000
FTUS46 KPQR 231454 AAA
TAFHIO
TAF AMD
KHIO 231454Z 2315/2412 15007KT P6SM -RA SCT020 OVC040
      TEMPO 2315/2317 6SM -RA BR BKN015 OVC030
     FM231900 19008KT P6SM -SHRA SCT020 BKN040
     FM240500 16004KT P6SM BKN050=



000
FTUS46 KPQR 231454 AAA
TAFHIO
TAF AMD
KHIO 231454Z 2315/2412 15007KT P6SM -RA SCT020 OVC040
      TEMPO 2315/2317 6SM -RA BR BKN015 OVC030
     FM231900 19008KT P6SM -SHRA SCT020 BKN040
     FM240500 16004KT P6SM BKN050=



000
FTUS46 KPQR 231453 AAA
TAFPDX
TAF AMD
KPDX 231453Z 2315/2412 11007KT P6SM -RA SCT020 OVC040
      TEMPO 2315/2319 6SM -RA BR BKN015 OVC030
     FM231900 19009KT P6SM -SHRA SCT020 BKN040
     FM240500 14005KT P6SM BKN050=



000
FTUS46 KPQR 231453 AAA
TAFPDX
TAF AMD
KPDX 231453Z 2315/2412 11007KT P6SM -RA SCT020 OVC040
      TEMPO 2315/2319 6SM -RA BR BKN015 OVC030
     FM231900 19009KT P6SM -SHRA SCT020 BKN040
     FM240500 14005KT P6SM BKN050=



000
FTUS46 KPQR 231132
TAFHIO
TAF
KHIO 231132Z 2312/2412 13006KT P6SM -RA SCT020 OVC040
      TEMPO 2313/2317 6SM -RA BKN015
     FM231700 19008KT P6SM -SHRA SCT020 BKN040
     FM240500 16004KT P6SM BKN050=



000
FTUS46 KPQR 231132
TAFPDX
TAF
KPDX 231132Z 2312/2412 12005KT P6SM -RA SCT020 OVC040
      TEMPO 2313/2317 6SM -RA BKN015
     FM231700 19009KT P6SM -SHRA SCT020 BKN040
     FM240500 14005KT P6SM BKN050=



000
FTUS46 KPQR 231132
TAFTTD
TAF
KTTD 231132Z 2312/2412 09005KT P6SM -RA SCT020 OVC050
      TEMPO 2313/2317 6SM -RA BKN020
     FM231700 23005KT P6SM -SHRA SCT020 BKN040
     FM240600 10003KT P6SM BKN050=



000
FTUS46 KPQR 231132
TAFSLE
TAF
KSLE 231132Z 2312/2412 18005KT P6SM -RA SCT025 OVC040
      TEMPO 2312/2316 6SM -RA SCT006 BKN025
     FM231800 19009KT P6SM -SHRA SCT025 BKN040
     FM240500 17004KT P6SM BKN040=



000
FTUS46 KPQR 231132
TAFONP
TAF
KONP 231132Z 2312/2412 20011G20KT 5SM -RA SCT008 BKN015 OVC050
      TEMPO 2312/2315 2SM RA BKN008 OVC012
     FM231500 21009KT P6SM -SHRA SCT020 BKN040
     FM240600 18006KT P6SM SCT015 BKN050=



000
FTUS46 KPQR 231132
TAFAST
TAF
KAST 231132Z 2312/2412 15007KT P6SM -RA SCT015 OVC050
      TEMPO 2312/2315 4SM RA BKN015
     FM231500 22008KT P6SM -SHRA SCT020 BKN040
     FM240700 18005KT P6SM SCT025 BKN050=



000
FTUS46 KPQR 231132
TAFEUG
TAF
KEUG 231132Z 2312/2412 17006KT P6SM SCT025 OVC050
      TEMPO 2312/2316 -SHRA BKN025
     FM231800 20009KT P6SM -SHRA SCT025 BKN040
     FM240400 VRB02KT P6SM BKN040=



000
FTUS46 KPQR 230910 AAA
TAFPDX
TAF AMD
KPDX 230910Z 2309/2406 17011KT P6SM -SHRA SCT025 BKN060
      TEMPO 2309/2312 6SM SHRA SCT015 OVC035
     FM231800 19010KT P6SM -SHRA SCT030 BKN050=



000
FTUS46 KPQR 230523
TAFAST
TAF
KAST 230523Z 2306/2406 20015G25KT P6SM -RA SCT027 OVC060
      TEMPO 2306/2310 6SM -SHRA SCT015 BKN027
     FM231000 21011KT P6SM -SHRA SCT025 BKN050 BKN070
     FM231400 20010G20KT P6SM -SHRA BKN025 OVC040
     FM232000 23010KT P6SM -SHRA SCT035 BKN060=



000
FTUS46 KPQR 230523
TAFPDX
TAF
KPDX 230523Z 2306/2406 17011KT P6SM -SHRA SCT025 BKN045 BKN070
      TEMPO 2306/2309 6SM SHRA SCT015 OVC035
     FM231800 19010KT P6SM -SHRA SCT030 BKN050=



000
FTUS46 KPQR 230523
TAFONP
TAF
KONP 230523Z 2306/2406 21014KT 5SM -SHRA BKN015 OVC030
      TEMPO 2306/2310 2SM SHRA BKN008 OVC012
     FM231200 19014G24KT P6SM -SHRA BKN025 OVC040
     FM231800 23013KT P6SM -SHRA SCT035 BKN060=



000
FTUS46 KPQR 230523
TAFTTD
TAF
KTTD 230523Z 2306/2406 16008KT P6SM -SHRA SCT025 BKN070
     FM231800 17007KT P6SM -SHRA SCT030 BKN050=



000
FTUS46 KPQR 230523
TAFSLE
TAF
KSLE 230523Z 2306/2406 18011KT P6SM -SHRA SCT020 OVC060
      TEMPO 2306/2310 SCT020 BKN030
     FM231800 19010KT P6SM -SHRA SCT030 BKN050=



000
FTUS46 KPQR 230523
TAFHIO
TAF
KHIO 230523Z 2306/2406 19010KT P6SM -SHRA SCT015 BKN045 BKN070
      TEMPO 2306/2309 5SM SHRA SCT015 OVC030
     FM231800 19010KT P6SM -SHRA SCT030 BKN050=



000
FTUS46 KPQR 230523
TAFEUG
TAF
KEUG 230523Z 2306/2406 18011KT P6SM -SHRA SCT025 OVC060
      TEMPO 2306/2310 BKN025
     FM231800 21010KT P6SM -SHRA SCT030 BKN050=



000
FTUS46 KPQR 230311 AAA
TAFAST
TAF AMD
KAST 230311Z 2303/2324 19015G25KT P6SM -RA BKN027 OVC060
      TEMPO 2303/2306 3SM RA BKN015 OVC025
     FM230600 23012KT P6SM -SHRA SCT025 BKN050
     FM231100 20010KT P6SM -SHRA BKN025 OVC040=



000
FTUS46 KPQR 230310 AAC
TAFPDX
TAF AMD
KPDX 230310Z 2303/2324 16010KT P6SM -RA SCT025 OVC050
      TEMPO 2303/2306 5SM -RA SCT010 BKN025 OVC050
     FM230600 17012KT P6SM -SHRA SCT025 OVC040
     FM231800 20010KT P6SM -SHRA BKN050=



000
FTUS46 KPQR 230200 AAA
TAFEUG
TAF AMD
KEUG 230200Z 2302/2324 20010KT 2SM RA BR BKN025 OVC070
     FM230400 17007KT P6SM -RA SCT025 OVC040
     FM231800 20010KT P6SM -SHRA BKN050=



000
FTUS46 KPQR 230200 AAA
TAFEUG
TAF AMD
KEUG 230200Z 2302/2324 20010KT 2SM RA BR BKN025 OVC070
     FM230400 17007KT P6SM -RA SCT025 OVC040
     FM231800 20010KT P6SM -SHRA BKN050=



000
FTUS46 KPQR 230156 AAA
TAFHIO
TAF AMD
KHIO 230156Z 2302/2324 16010KT P6SM -RA SCT025 OVC050
      TEMPO 2302/2304 6SM -RA BR BKN025
     FM230600 17007KT P6SM -SHRA SCT025 OVC040
     FM231800 20006KT P6SM -SHRA BKN050=



000
FTUS46 KPQR 230156 AAA
TAFHIO
TAF AMD
KHIO 230156Z 2302/2324 16010KT P6SM -RA SCT025 OVC050
      TEMPO 2302/2304 6SM -RA BR BKN025
     FM230600 17007KT P6SM -SHRA SCT025 OVC040
     FM231800 20006KT P6SM -SHRA BKN050=



000
FTUS46 KPQR 230155 AAB
TAFPDX
TAF AMD
KPDX 230155Z 2302/2324 12008KT P6SM -RA SCT025 OVC050
      TEMPO 2302/2304 5SM -RA SCT010 BKN025 OVC050
     FM230600 16010KT P6SM -SHRA SCT025 OVC040
     FM231800 20010KT P6SM -SHRA BKN050=



000
FTUS46 KPQR 230155 AAB
TAFPDX
TAF AMD
KPDX 230155Z 2302/2324 12008KT P6SM -RA SCT025 OVC050
      TEMPO 2302/2304 5SM -RA SCT010 BKN025 OVC050
     FM230600 16010KT P6SM -SHRA SCT025 OVC040
     FM231800 20010KT P6SM -SHRA BKN050=



000
FTUS46 KPQR 230039 AAA
TAFPDX
TAF AMD
KPDX 230039Z 2301/2324 17005KT 5SM -RA BR SCT025 OVC050
     FM230600 17007KT P6SM -SHRA SCT025 OVC040
     FM231800 20010KT P6SM -SHRA BKN050=



000
FTUS46 KPQR 230039 AAA
TAFPDX
TAF AMD
KPDX 230039Z 2301/2324 17005KT 5SM -RA BR SCT025 OVC050
     FM230600 17007KT P6SM -SHRA SCT025 OVC040
     FM231800 20010KT P6SM -SHRA BKN050=



000
FTUS46 KPQR 222345
TAFPDX
TAF
KPDX 222345Z 2300/2324 16006KT 2SM RA BR SCT004 SCT015 OVC025
     FM230200 19005KT 6SM -RA BR SCT015 SCT025 OVC035
     FM230600 17007KT P6SM -SHRA SCT025 OVC040
     FM231800 20010KT P6SM -SHRA BKN050=



000
FTUS46 KPQR 222345
TAFONP
TAF
KONP 222345Z 2300/2324 19014G24KT 4SM RA BKN008 OVC015
     FM230400 21014KT 4SM -SHRA BKN015 OVC035
     FM231100 20010KT 4SM -RA OVC010
     FM231700 20010KT 6SM -RA SCT015 OVC025=



000
FTUS46 KPQR 222345
TAFEUG
TAF
KEUG 222345Z 2300/2324 24010KT 2SM RA BR BKN015 OVC040
     FM230200 23010KT 6SM -RA BR SCT025 OVC050
     FM230600 17007KT P6SM -SHRA SCT025 OVC040
     FM231800 20010KT P6SM -SHRA BKN050=



000
FTUS46 KPQR 222345
TAFAST
TAF
KAST 222345Z 2300/2324 19010KT P6SM -RA BKN027 OVC060
     FM230100 21015G30KT 3SM RA BR SCT015 BKN025 OVC050
     FM230300 23012KT P6SM -SHRA SCT025 BKN050
     FM231100 20010KT P6SM -SHRA BKN025 OVC040=



000
FTUS46 KPQR 222345
TAFTTD
TAF
KTTD 222345Z 2300/2324 VRB03KT 2SM RA BR BKN015 OVC030
     FM230200 19004KT 6SM -RA BR SCT015 BKN025 OVC035
     FM230400 17007KT P6SM -SHRA SCT025 OVC040
     FM231800 20004KT P6SM -SHRA BKN050=



000
FTUS46 KPQR 222345
TAFSLE
TAF
KSLE 222345Z 2300/2324 20010KT 2SM RA BKN015 OVC040
     FM230200 21010KT 6SM -RA BR SCT025 OVC045
     FM230600 19007KT P6SM -SHRA SCT025 OVC040
     FM231800 20010KT P6SM -SHRA BKN050=



000
FTUS46 KPQR 222345
TAFHIO
TAF
KHIO 222345Z 2300/2324 19004KT 2SM RA BR OVC045
     FM230100 20005KT 6SM -RA BR SCT030 OVC045
     FM230600 17004KT P6SM -SHRA SCT025 OVC040
     FM231800 20006KT P6SM -SHRA BKN050=



000
FTUS46 KPQR 222143 AAA
TAFHIO
TAF AMD
KHIO 222143Z 2222/2318 20009KT 3SM -RA BR SCT010 BKN020 OVC040
     FM222300 17011KT 5SM -RA BR BKN015 OVC030
     FM230200 17010KT 5SM -RA BR SCT008 BKN015 OVC030
     FM230800 18010KT 6SM -SHRA BR FEW008 SCT025 BKN040=



000
FTUS46 KPQR 222139 AAA
TAFAST
TAF AMD
KAST 222139Z 2222/2318 12009KT 3SM -RA BR BKN015 OVC035
     FM230000 20012G20KT 4SM -RA BR BKN025 OVC050
     FM230300 20010KT P6SM -SHRA SCT025 BKN050=



000
FTUS46 KPQR 222129 AAC
TAFPDX
TAF AMD
KPDX 222129Z 2221/2318 VRB05KT 4SM -RA BR SCT010 BKN025 OVC040
      WS020/20030KT
      TEMPO 2221/2224 2SM RA BR SCT005 BKN010 OVC030
     FM230000 15009KT 6SM -RA BR BKN025 OVC035
     FM230600 17007KT P6SM -SHRA SCT025 BKN040=



000
FTUS46 KPQR 222127 AAA
TAFTTD
TAF AMD
KTTD 222127Z 2221/2318 09010KT 5SM -RA BKN025 OVC040 WS020/20030KT
      TEMPO 2221/2223 00000KT 2SM RA BKN008 OVC020
     FM222300 10010KT P6SM -RA SCT025 OVC035
     FM230900 21010KT P6SM -RA BKN025 OVC035
     FM231600 10005KT P6SM -SHRA SCT025 BKN040=



000
FTUS46 KPQR 222013 AAA
TAFEUG
TAF AMD
KEUG 222013Z 2220/2318 19019G26KT P6SM -RA SCT025 OVC050
     FM222300 19014KT 6SM -RA BR BKN025 OVC035
     FM230600 19006KT P6SM -SHRA SCT025 OVC035=



000
FTUS46 KPQR 222008 AAB
TAFPDX
TAF AMD
KPDX 222008Z 2220/2318 VRB05KT 4SM -RA BR SCT010 BKN025 OVC040
      WS020/20030KT
      TEMPO 2220/2224 2SM RA BR SCT005 BKN010 OVC030
     FM230000 15009KT 6SM -RA BR BKN025 OVC035
     FM230600 17007KT P6SM -SHRA SCT025 BKN040=



000
FTUS46 KPQR 221833 AAA
TAFPDX
TAF AMD
KPDX 221833Z 2219/2318 12011KT 6SM -RA BR SCT025 OVC040
      WS020/20030KT
      TEMPO 2219/2223 5SM -RA BR SCT008 BKN025 OVC040
     FM222300 15010KT 6SM -RA BR BKN025 OVC035
     FM230600 17010KT P6SM -SHRA SCT025 OVC035=



000
FTUS46 KPQR 221740 CCA
TAFAST
TAF COR
KAST 221740Z 2218/2318 19011KT 3SM -RA BR BKN015 OVC035
     FM222100 20012G20KT 4SM -RA BR BKN025 OVC050
     FM230000 20010KT P6SM -SHRA SCT025 BKN050=



000
FTUS46 KPQR 221740 CCA
TAFAST
TAF COR
KAST 221740Z 2218/2318 19011KT 3SM -RA BR BKN015 OVC035
     FM222100 20012G20KT 4SM -RA BR BKN025 OVC050
     FM230000 20010KT P6SM -SHRA SCT025 BKN050=



000
FTUS46 KPQR 221739
TAFEUG
TAF
KEUG 221739Z 2218/2318 18009KT 6SM -RA BR SCT025 OVC040
     FM222300 18014KT 6SM -RA BR BKN025 OVC035
     FM230600 19006KT P6SM -SHRA SCT025 OVC035=



000
FTUS46 KPQR 221739
TAFSLE
TAF
KSLE 221739Z 2218/2318 18009KT 6SM -RA BR SCT025 OVC040
     FM222300 18013KT 6SM -RA BR BKN025 OVC035
     FM230600 19008KT P6SM -SHRA SCT025 OVC035=



000
FTUS46 KPQR 221739
TAFAST
TAF
KAST 221739Z 2218/2318 19011G21KT 3SM -RA BR SCT015 OVC035
     FM222100 22015G25KT 4SM -RA BR BKN025 OVC050
     FM230000 20010KT P6SM -SHRA SCT025 BKN050=



000
FTUS46 KPQR 221739
TAFONP
TAF
KONP 221739Z 2218/2318 19015KT 1SM -RA BR BKN004 OVC008
     FM222200 20015G28KT 2SM -RA BR OVC010
     FM230400 21010KT 4SM -SHRA BKN015 OVC035=



000
FTUS46 KPQR 221739
TAFHIO
TAF
KHIO 221739Z 2218/2318 17011KT 4SM -RA BR BKN025 OVC040
     FM222100 17011KT 5SM -RA BR BKN015 OVC030
     FM222300 17010KT 5SM -RA BR SCT008 BKN015 OVC030
     FM230600 18010KT 6SM -SHRA BR FEW008 SCT025 BKN040=



000
FTUS46 KPQR 221739
TAFTTD
TAF
KTTD 221739Z 2218/2318 09010KT P6SM -RA SCT025 OVC040 WS020/20030KT
     FM222300 10010KT P6SM -RA SCT025 OVC035
     FM230900 21010KT P6SM -RA BKN025 OVC035
     FM231600 10005KT P6SM -SHRA SCT025 BKN040=



000
FTUS46 KPQR 221739
TAFPDX
TAF
KPDX 221739Z 2218/2318 14011KT 6SM -RA BR SCT025 OVC040
      WS020/20030KT
     FM222300 15010KT 6SM -RA BR BKN025 OVC035
     FM230600 17010KT P6SM -SHRA SCT025 OVC035=



000
FTUS46 KPQR 221739
TAFONP
TAF
KONP 221739Z 2218/2318 19015KT 1SM -RA BR BKN004 OVC008
     FM222200 20015G28KT 2SM -RA BR OVC010
     FM230400 21010KT 4SM -SHRA BKN015 OVC035=



000
FTUS46 KPQR 221739
TAFHIO
TAF
KHIO 221739Z 2218/2318 17011KT 4SM -RA BR BKN025 OVC040
     FM222100 17011KT 5SM -RA BR BKN015 OVC030
     FM222300 17010KT 5SM -RA BR SCT008 BKN015 OVC030
     FM230600 18010KT 6SM -SHRA BR FEW008 SCT025 BKN040=



000
FTUS46 KPQR 221739
TAFTTD
TAF
KTTD 221739Z 2218/2318 09010KT P6SM -RA SCT025 OVC040 WS020/20030KT
     FM222300 10010KT P6SM -RA SCT025 OVC035
     FM230900 21010KT P6SM -RA BKN025 OVC035
     FM231600 10005KT P6SM -SHRA SCT025 BKN040=



000
FTUS46 KPQR 221739
TAFEUG
TAF
KEUG 221739Z 2218/2318 18009KT 6SM -RA BR SCT025 OVC040
     FM222300 18014KT 6SM -RA BR BKN025 OVC035
     FM230600 19006KT P6SM -SHRA SCT025 OVC035=



000
FTUS46 KPQR 221739
TAFPDX
TAF
KPDX 221739Z 2218/2318 14011KT 6SM -RA BR SCT025 OVC040
      WS020/20030KT
     FM222300 15010KT 6SM -RA BR BKN025 OVC035
     FM230600 17010KT P6SM -SHRA SCT025 OVC035=



000
FTUS46 KPQR 221739
TAFAST
TAF
KAST 221739Z 2218/2318 19011G21KT 3SM -RA BR SCT015 OVC035
     FM222100 22015G25KT 4SM -RA BR BKN025 OVC050
     FM230000 20010KT P6SM -SHRA SCT025 BKN050=



000
FTUS46 KPQR 221739
TAFSLE
TAF
KSLE 221739Z 2218/2318 18009KT 6SM -RA BR SCT025 OVC040
     FM222300 18013KT 6SM -RA BR BKN025 OVC035
     FM230600 19008KT P6SM -SHRA SCT025 OVC035=



000
FTUS46 KPQR 221455 AAB
TAFPDX
TAF AMD
KPDX 221455Z 2215/2312 15012KT P6SM -RA SCT030 OVC040 WS020/20030KT
     FM221800 16015G25KT 6SM -RA BR SCT025 OVC040
     FM230100 18010KT P6SM -RA BKN025 OVC035
     FM230600 18010KT P6SM -RA OVC035=



000
FTUS46 KPQR 221341 AAA
TAFONP
TAF AMD
KONP 221341Z 2214/2312 20025G36KT 5SM RA SCT006 BKN015 OVC025
     FM221500 19024G30KT 4SM RA BKN025 OVC040
     FM222200 20015G28KT 2SM RA OVC010
     FM230400 21010KT 4SM -SHRA BKN015 OVC035=



000
FTUS46 KPQR 221223 AAA
TAFPDX
TAF AMD
KPDX 221223Z 2212/2312 15012KT P6SM -RA BKN045 OVC070
     FM221700 16015G25KT 6SM -RA OVC045
     FM222100 18010KT P6SM -RA BKN028 OVC035
     FM230600 18010KT P6SM -RA OVC035=



000
FTUS46 KPQR 221223 AAA
TAFHIO
TAF AMD
KHIO 221223Z 2212/2312 16012G20KT P6SM -RA BKN035 OVC070
     FM221700 16012G22KT 6SM -RA SCT035 OVC045
     FM222100 17010KT 5SM RA BKN028 OVC035
     FM230600 18010KT 5SM -RA HZ OVC035=



000
FTUS46 KPQR 221130
TAFHIO
TAF
KHIO 221130Z 2212/2312 16012KT P6SM -RA BKN035 OVC070
     FM221700 16012G22KT 6SM -RA SCT035 OVC045
     FM222100 17010KT 5SM RA BKN028 OVC035
     FM230600 18010KT 5SM -RA HZ OVC035=



000
FTUS46 KPQR 221130
TAFTTD
TAF
KTTD 221130Z 2212/2312 09010KT P6SM -RA SCT025 BKN035
     FM221700 17010KT 6SM -RA OVC045
     FM222100 17010KT 6SM RA BKN028 OVC035
     FM230600 18010KT P6SM -RA OVC035=



000
FTUS46 KPQR 221130
TAFEUG
TAF
KEUG 221130Z 2212/2312 18012KT P6SM -RA BKN045 OVC070
     FM222100 16012G22KT 6SM -RA OVC045
     FM230300 17010KT 6SM RA BKN028 OVC035
     FM230500 18012KT 6SM RA OVC035=



000
FTUS46 KPQR 221130
TAFPDX
TAF
KPDX 221130Z 2212/2312 12012KT P6SM -RA BKN045 OVC070
     FM221700 16015G25KT 6SM -RA OVC045
     FM222100 18010KT P6SM -RA BKN028 OVC035
     FM230600 18010KT P6SM -RA OVC035=



000
FTUS46 KPQR 221130
TAFSLE
TAF
KSLE 221130Z 2212/2312 17012KT P6SM -RA SCT045 OVC060
     FM221500 16012G20KT P6SM -RA BKN045 OVC070
     FM221900 16015G25KT 6SM -RA OVC045
     FM230000 17011KT 6SM RA BKN028 OVC035
     FM230500 18012KT 6SM RA OVC035=



000
FTUS46 KPQR 221130
TAFONP
TAF
KONP 221130Z 2212/2312 20027G40KT 6SM -RA SCT006 BKN015 OVC025
     FM221500 19024G30KT 4SM RA BKN025 OVC040
     FM222200 20015G28KT 2SM RA OVC010
     FM230400 21010KT 4SM -SHRA BKN015 OVC035=



000
FTUS46 KPQR 221130
TAFAST
TAF
KAST 221130Z 2212/2312 19025G38KT 3SM RA SCT015 BKN025 OVC035
     FM221300 21018G30KT 6SM -RA BKN025 OVC035
     FM221900 22015G25KT 6SM -RA BKN035 OVC050
     FM230000 20010KT P6SM -SHRA SCT025 BKN050=



000
FTUS46 KPQR 220901 AAA
TAFPDX
TAF AMD
KPDX 220901Z 2209/2306 10012KT P6SM -RA SCT045 OVC070
     FM221100 12012G20KT P6SM -RA BKN045 OVC070
     FM221700 16015G25KT 6SM -RA OVC045
     FM222100 17010KT 5SM RA BKN028 OVC035=



000
FTUS46 KPQR 220533
TAFTTD
TAF
KTTD 220533Z 2206/2306 10008KT P6SM -RA OVC070
     FM221100 10010KT P6SM -RA BKN045 OVC070
     FM221700 11010KT 6SM -RA OVC045
     FM222100 17010KT 5SM RA BKN028 OVC035=



000
FTUS46 KPQR 220533
TAFSLE
TAF
KSLE 220533Z 2206/2306 15012KT P6SM -RA SCT045 OVC060
     FM221300 16012G20KT P6SM -RA BKN045 OVC070
     FM221900 16015G25KT 6SM -RA OVC045
     FM230000 17011KT 5SM RA BKN028 OVC035=



000
FTUS46 KPQR 220533
TAFEUG
TAF
KEUG 220533Z 2206/2306 18010KT P6SM -RA FEW045 OVC070
     FM221300 16012KT P6SM -RA BKN045 OVC070
     FM222100 16012G22KT 6SM -RA OVC045
     FM230300 17010KT 5SM RA BKN028 OVC035=



000
FTUS46 KPQR 220533
TAFAST
TAF
KAST 220533Z 2206/2306 16010KT 6SM -RA BKN035 OVC045
     FM220800 19018G30KT 5SM -RA BKN025 OVC040
     FM221100 19025G38KT 3SM RA OVC015
     FM221500 20018G30KT 6SM -RA BKN025 OVC035
     FM221900 22015G25KT 6SM -RA BKN035 OVC050
     FM230000 20010KT P6SM -SHRA SCT025 BKN050=



000
FTUS46 KPQR 220533
TAFHIO
TAF
KHIO 220533Z 2206/2306 15008KT P6SM -RA FEW045 OVC070
     FM221100 12012KT P6SM -RA BKN045 OVC070
     FM221700 16012G22KT 6SM -RA SCT035 OVC045
     FM222100 17010KT 5SM RA BKN028 OVC035=



000
FTUS46 KPQR 220533
TAFONP
TAF
KONP 220533Z 2206/2306 16012G20KT P6SM -RA SCT015 BKN045 OVC060
     FM220800 19020G32KT 5SM -RA BKN008 OVC012
     FM221200 19027G40KT 3SM -RA BKN018 OVC025
     FM221600 19024G35KT 2SM RA BKN025 OVC040
     FM222200 20015G28KT 1SM RA OVC010
     FM230400 20010KT 4SM -SHRA BKN015 OVC035=



000
FTUS46 KPQR 220533
TAFPDX
TAF
KPDX 220533Z 2206/2306 10011KT P6SM -RA SCT045 OVC070
     FM221100 12012G20KT P6SM -RA BKN045 OVC070
     FM221700 16015G25KT 6SM -RA OVC045
     FM222100 17010KT 5SM RA BKN028 OVC035=



000
FTUS46 KPQR 220533
TAFTTD
TAF
KTTD 220533Z 2206/2306 10008KT P6SM -RA OVC070
     FM221100 10010KT P6SM -RA BKN045 OVC070
     FM221700 11010KT 6SM -RA OVC045
     FM222100 17010KT 5SM RA BKN028 OVC035=



000
FTUS46 KPQR 220533
TAFEUG
TAF
KEUG 220533Z 2206/2306 18010KT P6SM -RA FEW045 OVC070
     FM221300 16012KT P6SM -RA BKN045 OVC070
     FM222100 16012G22KT 6SM -RA OVC045
     FM230300 17010KT 5SM RA BKN028 OVC035=



000
FTUS46 KPQR 220533
TAFAST
TAF
KAST 220533Z 2206/2306 16010KT 6SM -RA BKN035 OVC045
     FM220800 19018G30KT 5SM -RA BKN025 OVC040
     FM221100 19025G38KT 3SM RA OVC015
     FM221500 20018G30KT 6SM -RA BKN025 OVC035
     FM221900 22015G25KT 6SM -RA BKN035 OVC050
     FM230000 20010KT P6SM -SHRA SCT025 BKN050=



000
FTUS46 KPQR 220533
TAFHIO
TAF
KHIO 220533Z 2206/2306 15008KT P6SM -RA FEW045 OVC070
     FM221100 12012KT P6SM -RA BKN045 OVC070
     FM221700 16012G22KT 6SM -RA SCT035 OVC045
     FM222100 17010KT 5SM RA BKN028 OVC035=



000
FTUS46 KPQR 220533
TAFONP
TAF
KONP 220533Z 2206/2306 16012G20KT P6SM -RA SCT015 BKN045 OVC060
     FM220800 19020G32KT 5SM -RA BKN008 OVC012
     FM221200 19027G40KT 3SM -RA BKN018 OVC025
     FM221600 19024G35KT 2SM RA BKN025 OVC040
     FM222200 20015G28KT 1SM RA OVC010
     FM230400 20010KT 4SM -SHRA BKN015 OVC035=



000
FTUS46 KPQR 220533
TAFPDX
TAF
KPDX 220533Z 2206/2306 10011KT P6SM -RA SCT045 OVC070
     FM221100 12012G20KT P6SM -RA BKN045 OVC070
     FM221700 16015G25KT 6SM -RA OVC045
     FM222100 17010KT 5SM RA BKN028 OVC035=



000
FTUS46 KPQR 220533
TAFSLE
TAF
KSLE 220533Z 2206/2306 15012KT P6SM -RA SCT045 OVC060
     FM221300 16012G20KT P6SM -RA BKN045 OVC070
     FM221900 16015G25KT 6SM -RA OVC045
     FM230000 17011KT 5SM RA BKN028 OVC035=



000
FTUS46 KPQR 220243 AAA
TAFPDX
TAF AMD
KPDX 220243Z 2203/2224 11010KT P6SM -SHRA FEW030 BKN050 OVC080
     FM220600 12012KT P6SM -RA BKN045 OVC070
     FM221700 17015G25KT 5SM -RA OVC035=



000
FTUS46 KPQR 220243 AAA
TAFPDX
TAF AMD
KPDX 220243Z 2203/2224 11010KT P6SM -SHRA FEW030 BKN050 OVC080
     FM220600 12012KT P6SM -RA BKN045 OVC070
     FM221700 17015G25KT 5SM -RA OVC035=



000
FTUS46 KPQR 220240 AAA
TAFONP
TAF AMD
KONP 220240Z 2203/2224 17012G20KT P6SM -RA BKN009 BKN012 OVC045
     FM220600 19020G30KT 5SM -RA BKN008 OVC012
     FM220900 19027G40KT 3SM RA BKN018 OVC025
     FM221600 19024G35KT 2SM RA BKN025 OVC040
     FM222200 20015G28KT 3SM RA OVC010=



000
FTUS46 KPQR 220234 AAA
TAFAST
TAF AMD
KAST 220234Z 2203/2224 19011KT P6SM -RA FEW025 OVC045
     FM220600 19018G30KT 5SM -RA BKN025 OVC040
     FM220900 19025G38KT 3SM RA OVC015
     FM221500 20018G30KT 6SM -RA BKN025 OVC035
     FM221900 22015G25KT 6SM -RA BKN035 OVC050=



000
FTUS46 KPQR 212341
TAFTTD
TAF
KTTD 212341Z 2200/2224 19004KT P6SM -SHRA SCT035 BKN045 OVC060
     FM220600 10010KT P6SM -RA BKN045 OVC070
     FM221700 16012KT 5SM -RA OVC035=



000
FTUS46 KPQR 212341
TAFPDX
TAF
KPDX 212341Z 2200/2224 16011KT P6SM -SHRA FEW030 BKN070
     FM220600 14012KT P6SM -RA BKN045 OVC070
     FM221700 17015G25KT 5SM -RA OVC035=



000
FTUS46 KPQR 212341
TAFSLE
TAF
KSLE 212341Z 2200/2224 18010KT P6SM -SHRA BKN045 OVC060
     FM220700 17012KT P6SM -RA BKN045 OVC070
     FM221900 17015G25KT 5SM -RA OVC035=



000
FTUS46 KPQR 212341
TAFAST
TAF
KAST 212341Z 2200/2224 19016G28KT P6SM -SHRA FEW025 OVC070
     FM220400 19018G30KT 5SM -RA OVC025
     FM220900 19025G38KT 3SM RA OVC015
     FM221500 20018G30KT 6SM -RA BKN025 OVC035
     FM221900 22015G25KT 6SM -RA BKN035 OVC050=



000
FTUS46 KPQR 212341
TAFHIO
TAF
KHIO 212341Z 2200/2224 15010KT P6SM -SHRA SCT035 BKN070
     FM220600 16010KT P6SM -RA BKN045 OVC070
     FM221700 17013G23KT 5SM -RA OVC035=



000
FTUS46 KPQR 212341
TAFEUG
TAF
KEUG 212341Z 2200/2224 18011KT P6SM -SHRA FEW045 OVC060
     FM220900 16012KT P6SM -RA BKN045 OVC070
     FM222100 17015G25KT 5SM -RA OVC035=



000
FTUS46 KPQR 212341
TAFONP
TAF
KONP 212341Z 2200/2224 18020G30KT P6SM BKN045 OVC120
     FM220500 19020G30KT 6SM -RA BKN035 OVC080
     FM220900 19027G40KT 3SM RA BKN018 OVC025
     FM221600 19024G35KT 2SM RA BKN025 OVC040
     FM222200 20015G28KT 3SM RA OVC010=



000
FTUS46 KPQR 212108 AAB
TAFPDX
TAF AMD
KPDX 212108Z 2121/2218 18012KT P6SM VCSH SCT025 BKN060 BKN080
     FM212300 15012KT P6SM -SHRA SCT030 OVC060
     FM220600 15015G25KT P6SM -RA OVC045
     FM221400 15015G25KT 5SM RA OVC035=



000
FTUS46 KPQR 212106 AAA
TAFPDX
TAF AMD
KPDX 212106Z 2121/2218 18012KT P6SM VCSH SCT025 BKN060 BKN080
     FM212300 15012KT P6SM -RA SCT030 OVC060
     FM220600 15015G25KT P6SM -RA OVC045
     FM221400 15015G25KT 5SM RA OVC035=



000
FTUS46 KPQR 211728
TAFEUG
TAF
KEUG 211728Z 2118/2218 18010KT P6SM VCSH SCT030 BKN040 BKN080
      TEMPO 2118/2120 BKN025
     FM212000 17012G20KT P6SM -RA SCT025 OVC045
     FM220500 18012G20KT P6SM -RA SCT035 OVC060
     FM221700 18012KT P6SM RA OVC035=



000
FTUS46 KPQR 211728
TAFTTD
TAF
KTTD 211728Z 2118/2218 VRB03KT P6SM VCSH SCT025 BKN035 BKN080
     FM212000 18006KT P6SM SCT030 BKN060 BKN100
     FM220000 11007KT P6SM -RA OVC060
     FM220600 12011KT P6SM -RA OVC045
     FM221500 11010KT 5SM RA OVC035=



000
FTUS46 KPQR 211728
TAFHIO
TAF
KHIO 211728Z 2118/2218 18011KT P6SM VCSH SCT015 BKN035 BKN080
      TEMPO 2118/2120 BKN015
     FM212300 17010KT P6SM -RA SCT030 OVC045
     FM220600 15012KT P6SM -RA OVC045
     FM221300 16012G22KT 5SM RA OVC035=



000
FTUS46 KPQR 211728
TAFONP
TAF
KONP 211728Z 2118/2218 18012G21KT 6SM -SHRA BR SCT025 SCT035 BKN080
     FM212000 19015G25KT 4SM -RA BR SCT025 OVC045
     FM220300 19020G30KT 3SM -RA OVC025
     FM220700 19027G40KT 3SM RA BKN018 OVC025
     FM221600 19024G35KT 5SM -RA BKN025 OVC040=



000
FTUS46 KPQR 211728
TAFPDX
TAF
KPDX 211728Z 2118/2218 18012KT P6SM VCSH SCT025 BKN050 BKN080
     FM212300 15012KT P6SM -RA SCT030 OVC060
     FM220600 15015G25KT P6SM -RA OVC045
     FM221400 15015G25KT 5SM RA OVC035=



000
FTUS46 KPQR 211728
TAFAST
TAF
KAST 211728Z 2118/2218 19012G20KT 6SM -SHRA SCT025 BKN040
     FM212100 19013G22KT P6SM -RA SCT030 OVC045
     FM220400 19018G30KT 4SM RA OVC025
     FM220900 19025G38KT 5SM RA OVC025
     FM221500 20018G30KT 6SM -RA OVC025=



000
FTUS46 KPQR 211728
TAFSLE
TAF
KSLE 211728Z 2118/2218 18012G18KT P6SM VCSH FEW025 BKN080
     FM212000 17014G20KT P6SM -RA SCT030 OVC045
     FM220500 18014G25KT P6SM -RA SCT035 OVC060
     FM221600 17014G25KT 5SM RA OVC035=



000
FTUS46 KPQR 211455 AAA
TAFPDX
TAF AMD
KPDX 211455Z 2115/2212 19012KT P6SM VCSH SCT025 BKN050 BKN080
     FM211900 18012KT P6SM SCT025 BKN050 BKN100
     FM220300 15012KT P6SM -RA OVC060
     FM220600 15015KT P6SM -RA OVC045=



000
FTUS46 KPQR 211455 AAA
TAFPDX
TAF AMD
KPDX 211455Z 2115/2212 19012KT P6SM VCSH SCT025 BKN050 BKN080
     FM211900 18012KT P6SM SCT025 BKN050 BKN100
     FM220300 15012KT P6SM -RA OVC060
     FM220600 15015KT P6SM -RA OVC045=



000
FTUS46 KPQR 211432 AAA
TAFONP
TAF AMD
KONP 211432Z 2115/2212 19014G21KT 5SM BR BKN010 BKN050
     FM211900 19015G25KT 4SM -RA BR SCT025 OVC045
     FM220300 19020G30KT 3SM -RA OVC025
     FM220700 19027G40KT 3SM RA BKN018 OVC025=



000
FTUS46 KPQR 211432 AAA
TAFONP
TAF AMD
KONP 211432Z 2115/2212 19014G21KT 5SM BR BKN010 BKN050
     FM211900 19015G25KT 4SM -RA BR SCT025 OVC045
     FM220300 19020G30KT 3SM -RA OVC025
     FM220700 19027G40KT 3SM RA BKN018 OVC025=



000
FTUS46 KPQR 211431 AAA
TAFAST
TAF AMD
KAST 211431Z 2115/2212 17010KT 6SM -RA BR BKN025 BKN040
     FM212200 19013G22KT P6SM -RA SCT030 OVC045
     FM220400 19018G30KT 4SM RA OVC015
     FM220900 19025G38KT 5SM RA OVC025=



000
FTUS46 KPQR 211431 AAA
TAFAST
TAF AMD
KAST 211431Z 2115/2212 17010KT 6SM -RA BR BKN025 BKN040
     FM212200 19013G22KT P6SM -RA SCT030 OVC045
     FM220400 19018G30KT 4SM RA OVC015
     FM220900 19025G38KT 5SM RA OVC025=



000
FTUS46 KPQR 211430 AAA
TAFEUG
TAF AMD
KEUG 211430Z 2115/2212 18006KT P6SM SCT025 BKN035 OVC060
      TEMPO 2115/2118 BKN025
     FM212000 17010KT P6SM -RA SCT025 BKN040
     FM220500 18012KT P6SM -RA OVC060=



000
FTUS46 KPQR 211430 AAA
TAFEUG
TAF AMD
KEUG 211430Z 2115/2212 18006KT P6SM SCT025 BKN035 OVC060
      TEMPO 2115/2118 BKN025
     FM212000 17010KT P6SM -RA SCT025 BKN040
     FM220500 18012KT P6SM -RA OVC060=



000
FTUS46 KPQR 211327 AAA
TAFSLE
TAF AMD
KSLE 211327Z 2113/2212 17012G18KT P6SM VCSH FEW025 BKN060
     FM212000 17014KT P6SM -RA OVC045
     FM220500 18014G28KT P6SM -RA OVC060=



000
FTUS46 KPQR 211327 AAA
TAFSLE
TAF AMD
KSLE 211327Z 2113/2212 17012G18KT P6SM VCSH FEW025 BKN060
     FM212000 17014KT P6SM -RA OVC045
     FM220500 18014G28KT P6SM -RA OVC060=



000
FTUS46 KPQR 211136
TAFSLE
TAF
KSLE 211136Z 2112/2212 17011KT P6SM VCSH FEW025 BKN060
     FM212000 17012KT P6SM -RA OVC045
     FM220500 18014KT P6SM -RA OVC060=



000
FTUS46 KPQR 211136
TAFONP
TAF
KONP 211136Z 2112/2212 18011KT P6SM VCSH SCT015 BKN045
     FM211600 19011KT 6SM BR VCSH BKN015 OVC035
     FM211900 19010G20KT 4SM -RA BR SCT025 OVC045
     FM220300 19020G30KT 3SM -RA OVC025
     FM220700 19027G40KT 3SM RA BKN018 OVC025=



000
FTUS46 KPQR 211136
TAFPDX
TAF
KPDX 211136Z 2112/2212 17009KT P6SM VCSH BKN050 BKN080
     FM211900 18010KT P6SM BKN050 BKN100
     FM220300 15012KT P6SM -RA OVC060
     FM220600 15015KT P6SM -RA OVC045=



000
FTUS46 KPQR 211136
TAFHIO
TAF
KHIO 211136Z 2112/2212 17007KT P6SM VCSH BKN050 BKN080
     FM211900 18004KT P6SM BKN060 BKN100
     FM220300 17007KT P6SM -RA OVC060
     FM220600 15012KT P6SM -RA OVC045=



000
FTUS46 KPQR 211136
TAFAST
TAF
KAST 211136Z 2112/2212 17006KT P6SM VCSH BKN040 BKN070
     FM211600 12004KT 6SM -RA BR BKN030 OVC050
     FM212200 19013G22KT P6SM -RA SCT030 OVC045
     FM220400 19018G30KT 4SM RA OVC015
     FM220900 19025G38KT 5SM RA OVC025=



000
FTUS46 KPQR 211136
TAFAST
TAF
KAST 211136Z 2112/2212 17006KT P6SM VCSH BKN040 BKN070
     FM211600 12004KT 6SM -RA BR BKN030 OVC050
     FM212200 19013G22KT P6SM -RA SCT030 OVC045
     FM220400 19018G30KT 4SM RA OVC015
     FM220900 19025G38KT 5SM RA OVC025=



000
FTUS46 KPQR 211136
TAFPDX
TAF
KPDX 211136Z 2112/2212 17009KT P6SM VCSH BKN050 BKN080
     FM211900 18010KT P6SM BKN050 BKN100
     FM220300 15012KT P6SM -RA OVC060
     FM220600 15015KT P6SM -RA OVC045=



000
FTUS46 KPQR 211136
TAFTTD
TAF
KTTD 211136Z 2112/2212 18006KT P6SM VCSH BKN050 BKN080
     FM211900 18004KT P6SM BKN060 BKN100
     FM220300 11007KT P6SM -RA OVC060
     FM220600 12011KT P6SM -RA OVC045=



000
FTUS46 KPQR 211136
TAFHIO
TAF
KHIO 211136Z 2112/2212 17007KT P6SM VCSH BKN050 BKN080
     FM211900 18004KT P6SM BKN060 BKN100
     FM220300 17007KT P6SM -RA OVC060
     FM220600 15012KT P6SM -RA OVC045=



000
FTUS46 KPQR 211136
TAFONP
TAF
KONP 211136Z 2112/2212 18011KT P6SM VCSH SCT015 BKN045
     FM211600 19011KT 6SM BR VCSH BKN015 OVC035
     FM211900 19010G20KT 4SM -RA BR SCT025 OVC045
     FM220300 19020G30KT 3SM -RA OVC025
     FM220700 19027G40KT 3SM RA BKN018 OVC025=



000
FTUS46 KPQR 211136
TAFSLE
TAF
KSLE 211136Z 2112/2212 17011KT P6SM VCSH FEW025 BKN060
     FM212000 17012KT P6SM -RA OVC045
     FM220500 18014KT P6SM -RA OVC060=



000
FTUS46 KPQR 211136
TAFEUG
TAF
KEUG 211136Z 2112/2212 17006KT P6SM VCSH FEW040 SCT070
     FM211400 12006KT P6SM FEW020 BKN060 BKN100
     FM212000 17010KT P6SM -RA OVC045
     FM220500 18012KT P6SM -RA OVC060=



000
FTUS46 KPQR 211136
TAFEUG
TAF
KEUG 211136Z 2112/2212 17006KT P6SM VCSH FEW040 SCT070
     FM211400 12006KT P6SM FEW020 BKN060 BKN100
     FM212000 17010KT P6SM -RA OVC045
     FM220500 18012KT P6SM -RA OVC060=



000
FTUS46 KPQR 211136
TAFHIO
TAF
KHIO 211136Z 2112/2212 17007KT P6SM VCSH BKN050 BKN080
     FM211900 18004KT P6SM BKN060 BKN100
     FM220300 17007KT P6SM -RA OVC060
     FM220600 15012KT P6SM -RA OVC045=



000
FTUS46 KPQR 211136
TAFAST
TAF
KAST 211136Z 2112/2212 17006KT P6SM VCSH BKN040 BKN070
     FM211600 12004KT 6SM -RA BR BKN030 OVC050
     FM212200 19013G22KT P6SM -RA SCT030 OVC045
     FM220400 19018G30KT 4SM RA OVC015
     FM220900 19025G38KT 5SM RA OVC025=



000
FTUS46 KPQR 211136
TAFTTD
TAF
KTTD 211136Z 2112/2212 18006KT P6SM VCSH BKN050 BKN080
     FM211900 18004KT P6SM BKN060 BKN100
     FM220300 11007KT P6SM -RA OVC060
     FM220600 12011KT P6SM -RA OVC045=



000
FTUS46 KPQR 211136
TAFTTD
TAF
KTTD 211136Z 2112/2212 18006KT P6SM VCSH BKN050 BKN080
     FM211900 18004KT P6SM BKN060 BKN100
     FM220300 11007KT P6SM -RA OVC060
     FM220600 12011KT P6SM -RA OVC045=



000
FTUS46 KPQR 211136
TAFPDX
TAF
KPDX 211136Z 2112/2212 17009KT P6SM VCSH BKN050 BKN080
     FM211900 18010KT P6SM BKN050 BKN100
     FM220300 15012KT P6SM -RA OVC060
     FM220600 15015KT P6SM -RA OVC045=



000
FTUS46 KPQR 211136
TAFONP
TAF
KONP 211136Z 2112/2212 18011KT P6SM VCSH SCT015 BKN045
     FM211600 19011KT 6SM BR VCSH BKN015 OVC035
     FM211900 19010G20KT 4SM -RA BR SCT025 OVC045
     FM220300 19020G30KT 3SM -RA OVC025
     FM220700 19027G40KT 3SM RA BKN018 OVC025=



000
FTUS46 KPQR 211136
TAFEUG
TAF
KEUG 211136Z 2112/2212 17006KT P6SM VCSH FEW040 SCT070
     FM211400 12006KT P6SM FEW020 BKN060 BKN100
     FM212000 17010KT P6SM -RA OVC045
     FM220500 18012KT P6SM -RA OVC060=



000
FTUS46 KPQR 211136
TAFSLE
TAF
KSLE 211136Z 2112/2212 17011KT P6SM VCSH FEW025 BKN060
     FM212000 17012KT P6SM -RA OVC045
     FM220500 18014KT P6SM -RA OVC060=



000
FTUS46 KPQR 211136
TAFONP
TAF
KONP 211136Z 2112/2212 18011KT P6SM VCSH SCT015 BKN045
     FM211600 19011KT 6SM BR VCSH BKN015 OVC035
     FM211900 19010G20KT 4SM -RA BR SCT025 OVC045
     FM220300 19020G30KT 3SM -RA OVC025
     FM220700 19027G40KT 3SM RA BKN018 OVC025=



000
FTUS46 KPQR 211136
TAFEUG
TAF
KEUG 211136Z 2112/2212 17006KT P6SM VCSH FEW040 SCT070
     FM211400 12006KT P6SM FEW020 BKN060 BKN100
     FM212000 17010KT P6SM -RA OVC045
     FM220500 18012KT P6SM -RA OVC060=



000
FTUS46 KPQR 211136
TAFAST
TAF
KAST 211136Z 2112/2212 17006KT P6SM VCSH BKN040 BKN070
     FM211600 12004KT 6SM -RA BR BKN030 OVC050
     FM212200 19013G22KT P6SM -RA SCT030 OVC045
     FM220400 19018G30KT 4SM RA OVC015
     FM220900 19025G38KT 5SM RA OVC025=



000
FTUS46 KPQR 211136
TAFHIO
TAF
KHIO 211136Z 2112/2212 17007KT P6SM VCSH BKN050 BKN080
     FM211900 18004KT P6SM BKN060 BKN100
     FM220300 17007KT P6SM -RA OVC060
     FM220600 15012KT P6SM -RA OVC045=



000
FTUS46 KPQR 211136
TAFTTD
TAF
KTTD 211136Z 2112/2212 18006KT P6SM VCSH BKN050 BKN080
     FM211900 18004KT P6SM BKN060 BKN100
     FM220300 11007KT P6SM -RA OVC060
     FM220600 12011KT P6SM -RA OVC045=



000
FTUS46 KPQR 211136
TAFSLE
TAF
KSLE 211136Z 2112/2212 17011KT P6SM VCSH FEW025 BKN060
     FM212000 17012KT P6SM -RA OVC045
     FM220500 18014KT P6SM -RA OVC060=



000
FTUS46 KPQR 211136
TAFPDX
TAF
KPDX 211136Z 2112/2212 17009KT P6SM VCSH BKN050 BKN080
     FM211900 18010KT P6SM BKN050 BKN100
     FM220300 15012KT P6SM -RA OVC060
     FM220600 15015KT P6SM -RA OVC045=



000
FTUS46 KPQR 210849 AAA
TAFPDX
TAF AMD
KPDX 210849Z 2109/2206 12006KT P6SM VCSH FEW030 BKN060
     FM211200 11006KT P6SM FEW020 BKN060
     FM211900 12006KT P6SM BKN050 BKN100
     FM220300 15010KT P6SM -RA OVC060=



000
FTUS46 KPQR 210520
TAFHIO
TAF
KHIO 210520Z 2106/2206 13004KT P6SM VCSH SCT060
     FM211200 VRB03KT P6SM FEW020 BKN060
     FM211900 12004KT P6SM BKN060 BKN100
     FM220300 11007KT P6SM -RA OVC060=



000
FTUS46 KPQR 210520
TAFSLE
TAF
KSLE 210520Z 2106/2206 17007KT P6SM VCSH FEW070
     FM211200 14006KT P6SM FEW025 BKN060
     FM212000 17010KT P6SM -RA OVC045
     FM220300 11007KT P6SM -RA OVC060=



000
FTUS46 KPQR 210520
TAFPDX
TAF
KPDX 210520Z 2106/2206 12006KT P6SM VCSH FEW030 SCT060
     FM211200 11006KT P6SM FEW020 BKN060
     FM211900 12006KT P6SM BKN050 BKN100
     FM220300 15010KT P6SM -RA OVC060=



000
FTUS46 KPQR 210520
TAFAST
TAF
KAST 210520Z 2106/2206 17011KT P6SM -SHRA SCT035 BKN070
     FM211100 16006KT P6SM VCSH BKN040 BKN070
     FM211600 12004KT 6SM -RA BR BKN030 OVC050
     FM212200 19013G22KT P6SM -RA SCT030 OVC045
     FM220400 19018G30KT 4SM RA OVC015=



000
FTUS46 KPQR 210520
TAFTTD
TAF
KTTD 210520Z 2106/2206 11004KT P6SM SCT070
     FM211200 11006KT P6SM FEW020 BKN060
     FM211400 11004KT P6SM BKN060 BKN100
     FM220300 11007KT P6SM -RA OVC060=



000
FTUS46 KPQR 210520
TAFEUG
TAF
KEUG 210520Z 2106/2206 17006KT P6SM VCSH FEW040 SCT070
     FM211300 12006KT P6SM FEW020 BKN060 BKN100
     FM212000 17010KT P6SM -RA OVC045
     FM220300 11007KT P6SM -RA OVC060=



000
FTUS46 KPQR 210520
TAFEUG
TAF
KEUG 210520Z 2106/2206 17006KT P6SM VCSH FEW040 SCT070
     FM211300 12006KT P6SM FEW020 BKN060 BKN100
     FM212000 17010KT P6SM -RA OVC045
     FM220300 11007KT P6SM -RA OVC060=



000
FTUS46 KPQR 210520
TAFONP
TAF
KONP 210520Z 2106/2206 18011KT P6SM VCSH SCT010 BKN020 OVC070
     FM211600 12006KT 6SM BR BKN015 OVC035
     FM211900 19010G20KT 4SM -RA BR SCT025 OVC045
     FM220300 18020G30KT 4SM -RA OVC015=



000
FTUS46 KPQR 210520
TAFTTD
TAF
KTTD 210520Z 2106/2206 11004KT P6SM SCT070
     FM211200 11006KT P6SM FEW020 BKN060
     FM211400 11004KT P6SM BKN060 BKN100
     FM220300 11007KT P6SM -RA OVC060=



000
FTUS46 KPQR 210520
TAFHIO
TAF
KHIO 210520Z 2106/2206 13004KT P6SM VCSH SCT060
     FM211200 VRB03KT P6SM FEW020 BKN060
     FM211900 12004KT P6SM BKN060 BKN100
     FM220300 11007KT P6SM -RA OVC060=



000
FTUS46 KPQR 210520
TAFONP
TAF
KONP 210520Z 2106/2206 18011KT P6SM VCSH SCT010 BKN020 OVC070
     FM211600 12006KT 6SM BR BKN015 OVC035
     FM211900 19010G20KT 4SM -RA BR SCT025 OVC045
     FM220300 18020G30KT 4SM -RA OVC015=



000
FTUS46 KPQR 210520
TAFPDX
TAF
KPDX 210520Z 2106/2206 12006KT P6SM VCSH FEW030 SCT060
     FM211200 11006KT P6SM FEW020 BKN060
     FM211900 12006KT P6SM BKN050 BKN100
     FM220300 15010KT P6SM -RA OVC060=



000
FTUS46 KPQR 210520
TAFSLE
TAF
KSLE 210520Z 2106/2206 17007KT P6SM VCSH FEW070
     FM211200 14006KT P6SM FEW025 BKN060
     FM212000 17010KT P6SM -RA OVC045
     FM220300 11007KT P6SM -RA OVC060=



000
FTUS46 KPQR 210520
TAFAST
TAF
KAST 210520Z 2106/2206 17011KT P6SM -SHRA SCT035 BKN070
     FM211100 16006KT P6SM VCSH BKN040 BKN070
     FM211600 12004KT 6SM -RA BR BKN030 OVC050
     FM212200 19013G22KT P6SM -RA SCT030 OVC045
     FM220400 19018G30KT 4SM RA OVC015=



000
FTUS46 KPQR 210343 AAB
TAFPDX
TAF AMD
KPDX 210343Z 2104/2124 17006KT P6SM VCSH SCT035 BKN090
     FM211400 12006KT P6SM BKN060 BKN100
     FM212000 15010KT P6SM -RA OVC045=



000
FTUS46 KPQR 210343 AAB
TAFPDX
TAF AMD
KPDX 210343Z 2104/2124 17006KT P6SM VCSH SCT035 BKN090
     FM211400 12006KT P6SM BKN060 BKN100
     FM212000 15010KT P6SM -RA OVC045=



000
FTUS46 KPQR 210041 AAA
TAFPDX
TAF AMD
KPDX 210041Z 2101/2124 17005KT P6SM -SHRA SCT025 BKN045 BKN070
     FM210300 17006KT P6SM VCSH SCT035 BKN070
     FM211400 12006KT P6SM BKN060 BKN100
     FM212000 15010KT P6SM -RA OVC045=



000
FTUS46 KPQR 210041 AAA
TAFPDX
TAF AMD
KPDX 210041Z 2101/2124 17005KT P6SM -SHRA SCT025 BKN045 BKN070
     FM210300 17006KT P6SM VCSH SCT035 BKN070
     FM211400 12006KT P6SM BKN060 BKN100
     FM212000 15010KT P6SM -RA OVC045=



000
FTUS46 KPQR 202343
TAFEUG
TAF
KEUG 202343Z 2100/2124 16009KT P6SM -SHRA SCT030 BKN060 BKN080
     FM210300 17006KT P6SM VCSH SCT035 SCT045 BKN070
     FM211400 12006KT P6SM BKN060 BKN100
     FM212000 15010KT P6SM -RA OVC045=



000
FTUS46 KPQR 202343
TAFSLE
TAF
KSLE 202343Z 2100/2124 16008KT P6SM -SHRA SCT025 BKN035 BKN090
     FM210300 16006KT P6SM VCSH SCT035 BKN070
     FM211400 14006KT P6SM BKN060 BKN100
     FM212000 17010KT P6SM -RA OVC045=



000
FTUS46 KPQR 202343
TAFONP
TAF
KONP 202343Z 2100/2124 18010G20KT P6SM -SHRA SCT012 BKN024 OVC045
     FM210400 17011KT P6SM -SHRA SCT030 BKN050
     FM211400 12006KT P6SM BKN040 BKN070
     FM211600 15010KT P6SM SCT025 OVC045
     FM211800 18020G30KT 4SM -RA OVC025=



000
FTUS46 KPQR 202343
TAFTTD
TAF
KTTD 202343Z 2100/2124 20007KT P6SM -SHRA BKN035 OVC060
     FM210300 14004KT P6SM VCSH SCT035 BKN070
     FM211400 11004KT P6SM BKN060 BKN100
     FM212000 15008KT P6SM -RA OVC045=



000
FTUS46 KPQR 202343
TAFAST
TAF
KAST 202343Z 2100/2124 18012G24KT P6SM -SHRA SCT025 BKN035 OVC050
     FM210400 17011KT P6SM -SHRA SCT035 BKN070
     FM211100 16006KT P6SM VCSH BKN040 BKN070
     FM211600 19013KT P6SM -RA BKN030 OVC045=



000
FTUS46 KPQR 202343
TAFHIO
TAF
KHIO 202343Z 2100/2124 16006KT P6SM -SHRA SCT035 BKN050
     FM210300 15006KT P6SM VCSH SCT035 BKN070
     FM211400 12004KT P6SM BKN060 BKN100
     FM212000 15006KT P6SM -RA OVC045=



000
FTUS46 KPQR 202343
TAFPDX
TAF
KPDX 202343Z 2100/2124 27005KT P6SM -SHRA SCT025 BKN045 BKN070
     FM210300 17006KT P6SM VCSH SCT035 BKN070
     FM211400 12006KT P6SM BKN060 BKN100
     FM212000 15010KT P6SM -RA OVC045=



000
FTUS46 KPQR 202343
TAFONP
TAF
KONP 202343Z 2100/2124 18010G20KT P6SM -SHRA SCT012 BKN024 OVC045
     FM210400 17011KT P6SM -SHRA SCT030 BKN050
     FM211400 12006KT P6SM BKN040 BKN070
     FM211600 15010KT P6SM SCT025 OVC045
     FM211800 18020G30KT 4SM -RA OVC025=



000
FTUS46 KPQR 202343
TAFPDX
TAF
KPDX 202343Z 2100/2124 27005KT P6SM -SHRA SCT025 BKN045 BKN070
     FM210300 17006KT P6SM VCSH SCT035 BKN070
     FM211400 12006KT P6SM BKN060 BKN100
     FM212000 15010KT P6SM -RA OVC045=



000
FTUS46 KPQR 202343
TAFEUG
TAF
KEUG 202343Z 2100/2124 16009KT P6SM -SHRA SCT030 BKN060 BKN080
     FM210300 17006KT P6SM VCSH SCT035 SCT045 BKN070
     FM211400 12006KT P6SM BKN060 BKN100
     FM212000 15010KT P6SM -RA OVC045=



000
FTUS46 KPQR 202343
TAFHIO
TAF
KHIO 202343Z 2100/2124 16006KT P6SM -SHRA SCT035 BKN050
     FM210300 15006KT P6SM VCSH SCT035 BKN070
     FM211400 12004KT P6SM BKN060 BKN100
     FM212000 15006KT P6SM -RA OVC045=



000
FTUS46 KPQR 202343
TAFSLE
TAF
KSLE 202343Z 2100/2124 16008KT P6SM -SHRA SCT025 BKN035 BKN090
     FM210300 16006KT P6SM VCSH SCT035 BKN070
     FM211400 14006KT P6SM BKN060 BKN100
     FM212000 17010KT P6SM -RA OVC045=



000
FTUS46 KPQR 202343
TAFAST
TAF
KAST 202343Z 2100/2124 18012G24KT P6SM -SHRA SCT025 BKN035 OVC050
     FM210400 17011KT P6SM -SHRA SCT035 BKN070
     FM211100 16006KT P6SM VCSH BKN040 BKN070
     FM211600 19013KT P6SM -RA BKN030 OVC045=



000
FTUS46 KPQR 202343
TAFTTD
TAF
KTTD 202343Z 2100/2124 20007KT P6SM -SHRA BKN035 OVC060
     FM210300 14004KT P6SM VCSH SCT035 BKN070
     FM211400 11004KT P6SM BKN060 BKN100
     FM212000 15008KT P6SM -RA OVC045=



    US Dept of Commerce
    National Oceanic and Atmospheric Administration
    National Weather Service
    1325 East West Highway
    Silver Spring, MD 20910
    Page Author: NWS Internet Services Team
Disclaimer
Information Quality
Credits
Glossary
Privacy Policy
Freedom of Information Act (FOIA)
About Us
Career Opportunities